createdAt,value
2022-09-13T00:00:09.864Z,15.54
2022-09-13T00:02:37.391Z,15.57
2022-09-13T00:05:05.265Z,15.56
2022-09-13T00:07:32.819Z,15.60
2022-09-13T00:10:00.373Z,15.46
2022-09-13T00:12:27.923Z,15.48
2022-09-13T00:14:55.425Z,15.46
2022-09-13T00:17:24.314Z,15.37
2022-09-13T00:19:51.871Z,15.44
2022-09-13T00:22:19.590Z,15.60
2022-09-13T00:24:47.152Z,15.66
2022-09-13T00:27:14.692Z,15.72
2022-09-13T00:29:42.275Z,15.61
2022-09-13T00:32:09.886Z,15.51
2022-09-13T00:34:38.822Z,15.60
2022-09-13T00:37:06.388Z,15.47
2022-09-13T00:39:33.972Z,15.48
2022-09-13T00:42:01.648Z,15.45
2022-09-13T00:44:55.004Z,15.46
2022-09-13T00:47:26.697Z,15.34
2022-09-13T00:49:58.308Z,15.52
2022-09-13T00:52:28.512Z,15.42
2022-09-13T00:55:00.683Z,15.48
2022-09-13T00:57:28.729Z,15.51
2022-09-13T01:00:00.174Z,15.58
2022-09-13T01:02:28.531Z,15.55
2022-09-13T01:04:57.577Z,15.53
2022-09-13T01:07:25.214Z,15.48
2022-09-13T01:09:53.259Z,15.46
2022-09-13T01:12:28.141Z,15.39
2022-09-13T01:14:57.034Z,15.33
2022-09-13T01:17:24.558Z,15.27
2022-09-13T01:19:52.177Z,15.35
2022-09-13T01:22:37.166Z,15.24
2022-09-13T01:25:19.116Z,15.12
2022-09-13T01:28:04.515Z,15.00
2022-09-13T01:30:36.757Z,14.87
2022-09-13T01:33:17.110Z,14.84
2022-09-13T01:36:24.043Z,14.76
2022-09-13T01:38:58.040Z,14.77
2022-09-13T01:41:37.924Z,14.65
2022-09-13T01:44:13.746Z,14.71
2022-09-13T01:46:49.646Z,14.67
2022-09-13T01:49:23.317Z,14.66
2022-09-13T01:51:56.039Z,14.63
2022-09-13T01:54:32.140Z,14.72
2022-09-13T01:57:03.276Z,14.66
2022-09-13T01:59:38.810Z,14.46
2022-09-13T02:02:10.390Z,14.39
2022-09-13T02:04:42.089Z,14.38
2022-09-13T02:07:13.364Z,14.28
2022-09-13T02:09:44.020Z,14.27
2022-09-13T02:12:15.975Z,14.28
2022-09-13T02:14:45.612Z,14.23
2022-09-13T02:17:17.415Z,14.28
2022-09-13T02:19:49.870Z,14.23
2022-09-13T02:22:21.831Z,14.27
2022-09-13T02:24:58.318Z,14.30
2022-09-13T02:27:28.061Z,14.31
2022-09-13T02:30:00.712Z,14.30
2022-09-13T02:32:33.214Z,14.37
2022-09-13T02:35:03.118Z,14.32
2022-09-13T02:37:32.409Z,14.32
2022-09-13T02:40:03.996Z,14.32
2022-09-13T02:42:36.389Z,14.39
2022-09-13T02:45:04.508Z,14.36
2022-09-13T02:47:42.284Z,14.40
2022-09-13T02:50:22.714Z,14.35
2022-09-13T02:52:55.152Z,14.34
2022-09-13T02:55:26.677Z,14.38
2022-09-13T02:58:01.796Z,14.33
2022-09-13T03:00:29.990Z,14.31
2022-09-13T03:03:02.370Z,14.41
2022-09-13T03:05:29.928Z,14.39
2022-09-13T03:07:57.830Z,14.43
2022-09-13T03:10:27.544Z,14.40
2022-09-13T03:13:15.784Z,14.46
2022-09-13T03:15:54.091Z,14.50
2022-09-13T03:18:49.677Z,14.52
2022-09-13T03:21:32.461Z,14.59
2022-09-13T03:24:09.090Z,14.69
2022-09-13T03:26:46.347Z,14.67
2022-09-13T03:29:24.906Z,14.69
2022-09-13T03:32:00.708Z,14.77
2022-09-13T03:34:34.794Z,14.58
2022-09-13T03:37:06.934Z,14.59
2022-09-13T03:39:40.841Z,14.55
2022-09-13T03:42:14.179Z,14.52
2022-09-13T03:44:44.482Z,14.47
2022-09-13T03:47:12.351Z,14.54
2022-09-13T03:49:41.606Z,14.50
2022-09-13T03:52:09.538Z,14.49
2022-09-13T03:54:38.691Z,14.49
2022-09-13T03:57:17.148Z,14.45
2022-09-13T03:59:47.820Z,14.48
2022-09-13T04:02:16.399Z,14.43
2022-09-13T04:04:45.981Z,14.40
2022-09-13T04:07:16.198Z,14.43
2022-09-13T04:09:43.811Z,14.41
2022-09-13T04:12:11.442Z,14.61
2022-09-13T04:14:39.020Z,14.51
2022-09-13T04:17:07.368Z,14.39
2022-09-13T04:19:35.076Z,14.44
2022-09-13T04:22:04.246Z,14.35
2022-09-13T04:24:32.171Z,14.35
2022-09-13T04:27:00.182Z,14.33
2022-09-13T04:29:27.901Z,14.36
2022-09-13T04:31:56.180Z,14.39
2022-09-13T04:34:24.400Z,14.48
2022-09-13T04:36:53.429Z,14.55
2022-09-13T04:39:23.685Z,14.52
2022-09-13T04:41:51.931Z,14.49
2022-09-13T04:44:20.601Z,14.47
2022-09-13T04:46:49.294Z,14.50
2022-09-13T04:49:17.353Z,14.50
2022-09-13T04:51:45.130Z,14.40
2022-09-13T04:54:15.980Z,14.48
2022-09-13T04:56:45.440Z,14.35
2022-09-13T04:59:13.720Z,14.39
2022-09-13T05:01:41.692Z,14.42
2022-09-13T05:04:10.848Z,14.45
2022-09-13T05:06:38.545Z,14.40
2022-09-13T05:09:06.718Z,14.47
2022-09-13T05:11:34.494Z,14.48
2022-09-13T05:14:03.991Z,14.47
2022-09-13T05:16:33.477Z,14.43
2022-09-13T05:19:01.623Z,14.46
2022-09-13T05:21:29.724Z,14.46
2022-09-13T05:23:57.938Z,14.48
2022-09-13T05:26:27.037Z,14.50
2022-09-13T05:28:54.654Z,14.56
2022-09-13T05:31:25.935Z,14.59
2022-09-13T05:33:55.208Z,14.53
2022-09-13T05:36:22.879Z,14.52
2022-09-13T05:39:01.647Z,14.57
2022-09-13T05:41:37.889Z,14.39
2022-09-13T05:44:12.667Z,14.38
2022-09-13T05:46:42.769Z,14.48
2022-09-13T05:49:10.311Z,14.49
2022-09-13T05:51:37.868Z,14.47
2022-09-13T05:54:05.616Z,14.61
2022-09-13T05:56:33.410Z,14.58
2022-09-13T05:59:00.967Z,14.65
2022-09-13T06:01:29.544Z,14.63
2022-09-13T06:03:59.559Z,14.59
2022-09-13T06:06:27.633Z,14.57
2022-09-13T06:08:56.005Z,14.62
2022-09-13T06:11:24.314Z,14.59
2022-09-13T06:13:51.906Z,14.67
2022-09-13T06:16:19.870Z,14.61
2022-09-13T06:18:47.578Z,14.62
2022-09-13T06:21:18.495Z,14.60
2022-09-13T06:23:46.174Z,14.61
2022-09-13T06:26:15.258Z,14.72
2022-09-13T06:28:43.279Z,14.70
2022-09-13T06:31:12.365Z,14.76
2022-09-13T06:33:41.271Z,14.74
2022-09-13T06:36:10.556Z,14.81
2022-09-13T06:38:40.109Z,14.91
2022-09-13T06:41:09.605Z,15.00
2022-09-13T06:43:38.054Z,15.05
2022-09-13T06:46:07.510Z,15.05
2022-09-13T06:48:36.256Z,15.06
2022-09-13T06:51:06.117Z,15.10
2022-09-13T06:53:35.132Z,15.16
2022-09-13T06:56:06.594Z,15.17
2022-09-13T06:58:35.095Z,15.18
2022-09-13T07:01:11.532Z,15.23
2022-09-13T07:03:40.528Z,15.21
2022-09-13T07:06:12.688Z,15.22
2022-09-13T07:08:41.290Z,15.27
2022-09-13T07:11:10.541Z,15.39
2022-09-13T07:13:38.465Z,15.37
2022-09-13T07:16:07.944Z,15.31
2022-09-13T07:18:35.622Z,15.41
2022-09-13T07:21:04.581Z,15.30
2022-09-13T07:23:32.757Z,15.38
2022-09-13T07:26:04.450Z,15.39
2022-09-13T07:28:35.615Z,15.25
2022-09-13T07:31:08.040Z,15.18
2022-09-13T07:33:35.800Z,15.12
2022-09-13T07:36:06.427Z,15.12
2022-09-13T07:38:35.352Z,15.01
2022-09-13T07:41:05.091Z,15.03
2022-09-13T07:43:34.918Z,15.14
2022-09-13T07:46:03.939Z,15.18
2022-09-13T07:48:33.909Z,15.24
2022-09-13T07:51:03.155Z,15.35
2022-09-13T07:53:30.988Z,15.34
2022-09-13T07:56:03.324Z,15.43
2022-09-13T07:58:30.879Z,15.45
2022-09-13T08:01:06.710Z,15.60
2022-09-13T08:03:34.871Z,15.74
2022-09-13T08:06:03.052Z,15.86
2022-09-13T08:08:31.443Z,15.86
2022-09-13T08:10:59.281Z,16.01
2022-09-13T08:13:27.199Z,16.16
2022-09-13T08:15:54.790Z,16.30
2022-09-13T08:18:23.731Z,16.29
2022-09-13T08:20:51.274Z,16.35
2022-09-13T08:23:18.781Z,16.33
2022-09-13T08:25:46.361Z,16.24
2022-09-13T08:28:16.689Z,16.25
2022-09-13T08:30:44.846Z,16.24
2022-09-13T08:33:12.870Z,16.29
2022-09-13T08:35:42.172Z,16.49
2022-09-13T08:38:09.752Z,16.38
2022-09-13T08:40:41.882Z,16.33
2022-09-13T08:43:16.103Z,16.26
2022-09-13T08:45:43.741Z,16.26
2022-09-13T08:48:14.925Z,16.22
2022-09-13T08:50:45.040Z,16.14
2022-09-13T08:53:19.079Z,16.26
2022-09-13T08:55:52.302Z,16.42
2022-09-13T08:58:50.064Z,16.50
2022-09-13T09:01:25.044Z,16.58
2022-09-13T09:03:59.325Z,16.68
2022-09-13T09:06:29.230Z,16.83
2022-09-13T09:09:01.125Z,16.83
2022-09-13T09:11:33.156Z,17.00
2022-09-13T09:14:06.024Z,17.13
2022-09-13T09:16:37.747Z,17.08
2022-09-13T09:19:11.895Z,17.31
2022-09-13T09:21:41.660Z,17.33
2022-09-13T09:24:13.949Z,17.46
2022-09-13T09:26:41.517Z,17.49
2022-09-13T09:29:19.760Z,17.51
2022-09-13T09:31:59.140Z,17.44
2022-09-13T09:34:42.451Z,17.40
2022-09-13T09:37:18.020Z,17.43
2022-09-13T09:39:45.697Z,17.52
2022-09-13T09:42:17.144Z,17.63
2022-09-13T09:44:46.321Z,17.75
2022-09-13T09:47:17.007Z,17.82
2022-09-13T09:50:04.815Z,17.98
2022-09-13T09:52:38.061Z,18.08
2022-09-13T09:55:16.331Z,18.23
2022-09-13T09:57:56.312Z,18.42
2022-09-13T10:00:25.692Z,18.51
2022-09-13T10:02:55.388Z,18.57
2022-09-13T10:05:26.186Z,18.59
2022-09-13T10:07:58.335Z,18.60
2022-09-13T10:10:36.956Z,18.59
2022-09-13T10:13:06.500Z,18.66
2022-09-13T10:15:35.493Z,18.65
2022-09-13T10:18:26.692Z,18.57
2022-09-13T10:21:03.724Z,18.53
2022-09-13T10:23:34.340Z,18.47
2022-09-13T10:26:05.845Z,18.50
2022-09-13T10:28:35.369Z,18.66
2022-09-13T10:31:06.240Z,18.76
2022-09-13T10:33:35.121Z,18.65
2022-09-13T10:36:05.615Z,18.58
2022-09-13T10:38:36.884Z,18.70
2022-09-13T10:41:06.695Z,18.79
2022-09-13T10:43:35.102Z,18.83
2022-09-13T10:46:05.180Z,19.00
2022-09-13T10:48:45.902Z,18.91
2022-09-13T10:51:22.686Z,18.93
2022-09-13T10:53:51.586Z,18.69
2022-09-13T10:56:24.209Z,18.71
2022-09-13T10:58:51.798Z,18.72
2022-09-13T11:01:41.998Z,18.63
2022-09-13T11:04:39.517Z,18.56
2022-09-13T11:07:21.267Z,18.61
2022-09-13T11:09:54.021Z,18.65
2022-09-13T11:12:26.584Z,18.71
2022-09-13T11:15:02.879Z,18.69
2022-09-13T11:17:44.956Z,18.75
2022-09-13T11:20:22.363Z,18.85
2022-09-13T11:23:17.167Z,18.80
2022-09-13T11:25:55.203Z,18.77
2022-09-13T11:28:27.564Z,18.75
2022-09-13T11:31:11.459Z,18.63
2022-09-13T11:33:49.716Z,18.58
2022-09-13T11:36:41.607Z,18.71
2022-09-13T11:39:16.779Z,18.81
2022-09-13T11:41:54.308Z,18.78
2022-09-13T11:44:55.321Z,18.77
2022-09-13T11:47:32.487Z,18.84
2022-09-13T11:50:08.241Z,19.04
2022-09-13T11:52:48.754Z,18.95
2022-09-13T11:55:18.784Z,19.07
2022-09-13T11:57:50.848Z,18.98
2022-09-13T12:00:22.844Z,19.11
2022-09-13T12:02:57.747Z,19.18
2022-09-13T12:05:28.951Z,19.26
2022-09-13T12:07:59.147Z,19.15
2022-09-13T12:10:30.001Z,19.24
2022-09-13T12:13:01.423Z,19.07
2022-09-13T12:15:35.632Z,19.12
2022-09-13T12:18:06.909Z,19.22
2022-09-13T12:20:35.686Z,19.43
2022-09-13T12:23:06.195Z,19.45
2022-09-13T12:25:39.364Z,19.54
2022-09-13T12:28:16.527Z,19.75
2022-09-13T12:30:48.302Z,19.87
2022-09-13T12:33:16.784Z,20.01
2022-09-13T12:35:51.704Z,20.06
2022-09-13T12:38:37.283Z,20.14
2022-09-13T12:41:12.924Z,20.13
2022-09-13T12:43:53.851Z,20.30
2022-09-13T12:46:57.220Z,20.28
2022-09-13T12:49:34.643Z,20.46
2022-09-13T12:52:11.415Z,20.37
2022-09-13T12:55:45.789Z,20.31
2022-09-13T12:58:46.587Z,20.48
2022-09-13T13:01:17.034Z,20.56
2022-09-13T13:03:50.129Z,20.44
2022-09-13T13:06:26.671Z,20.31
2022-09-13T13:08:56.335Z,20.15
2022-09-13T13:11:25.486Z,20.24
2022-09-13T13:13:57.918Z,20.11
2022-09-13T13:16:30.152Z,20.09
2022-09-13T13:18:58.812Z,20.14
2022-09-13T13:21:39.061Z,19.91
2022-09-13T13:24:45.005Z,19.85
2022-09-13T13:27:38.249Z,19.93
2022-09-13T13:30:56.261Z,19.92
2022-09-13T13:33:28.365Z,19.95
2022-09-13T13:35:56.307Z,19.99
2022-09-13T13:38:49.417Z,20.19
2022-09-13T13:41:44.744Z,20.08
2022-09-13T13:44:45.768Z,20.29
2022-09-13T13:47:42.446Z,20.21
2022-09-13T13:50:16.768Z,20.17
2022-09-13T13:52:55.316Z,20.25
2022-09-13T13:55:40.659Z,20.19
2022-09-13T13:58:31.656Z,20.19
2022-09-13T14:01:01.209Z,20.31
2022-09-13T14:03:59.128Z,20.28
2022-09-13T14:06:32.482Z,20.33
2022-09-13T14:09:06.404Z,20.32
2022-09-13T14:11:44.197Z,20.32
2022-09-13T14:14:28.840Z,20.43
2022-09-13T14:17:05.924Z,20.33
2022-09-13T14:19:35.591Z,20.30
2022-09-13T14:22:15.251Z,20.37
2022-09-13T14:24:46.195Z,20.40
2022-09-13T14:27:17.498Z,20.38
2022-09-13T14:29:50.589Z,20.35
2022-09-13T14:32:21.835Z,20.32
2022-09-13T14:34:55.623Z,20.35
2022-09-13T14:37:28.406Z,20.33
2022-09-13T14:39:57.697Z,20.27
2022-09-13T14:42:25.874Z,20.31
2022-09-13T14:44:53.936Z,20.44
2022-09-13T14:47:27.482Z,20.31
2022-09-13T14:50:00.584Z,20.42
2022-09-13T14:52:31.649Z,20.41
2022-09-13T14:55:04.141Z,20.31
2022-09-13T14:57:34.682Z,20.22
2022-09-13T15:00:05.416Z,20.28
2022-09-13T15:02:36.789Z,20.24
2022-09-13T15:05:08.959Z,20.16
2022-09-13T15:07:40.058Z,20.20
2022-09-13T15:10:11.486Z,20.24
2022-09-13T15:12:40.197Z,20.26
2022-09-13T15:15:33.526Z,20.28
2022-09-13T15:18:03.247Z,20.08
2022-09-13T15:20:31.902Z,20.11
2022-09-13T15:23:00.951Z,20.15
2022-09-13T15:25:31.849Z,20.21
2022-09-13T15:28:00.105Z,20.15
2022-09-13T15:30:29.829Z,20.06
2022-09-13T15:33:24.338Z,19.92
2022-09-13T15:35:52.610Z,19.86
2022-09-13T15:38:30.834Z,19.99
2022-09-13T15:41:01.632Z,20.04
2022-09-13T15:43:29.356Z,19.93
2022-09-13T15:45:58.736Z,20.09
2022-09-13T15:48:29.745Z,20.00
2022-09-13T15:51:07.492Z,19.94
2022-09-13T15:53:36.887Z,19.87
2022-09-13T15:56:05.368Z,19.87
2022-09-13T15:58:33.526Z,19.89
2022-09-13T16:01:01.269Z,19.86
2022-09-13T16:03:29.369Z,19.85
2022-09-13T16:05:57.413Z,19.86
2022-09-13T16:08:25.516Z,19.86
2022-09-13T16:10:54.477Z,19.84
2022-09-13T16:13:22.022Z,19.90
2022-09-13T16:15:49.767Z,19.87
2022-09-13T16:18:17.878Z,19.84
2022-09-13T16:20:46.087Z,19.82
2022-09-13T16:23:13.630Z,19.91
2022-09-13T16:25:41.302Z,20.00
2022-09-13T16:28:17.273Z,19.92
2022-09-13T16:30:45.162Z,19.79
2022-09-13T16:33:12.740Z,19.84
2022-09-13T16:35:40.394Z,19.79
2022-09-13T16:38:08.314Z,19.69
2022-09-13T16:40:36.080Z,19.73
2022-09-13T16:43:03.833Z,19.73
2022-09-13T16:45:32.740Z,19.71
2022-09-13T16:48:00.393Z,19.66
2022-09-13T16:50:29.379Z,19.67
2022-09-13T16:53:00.095Z,19.66
2022-09-13T16:55:27.949Z,19.65
2022-09-13T16:57:55.665Z,19.67
2022-09-13T17:00:24.531Z,19.69
2022-09-13T17:02:53.549Z,19.66
2022-09-13T17:05:21.284Z,19.69
2022-09-13T17:07:48.869Z,19.63
2022-09-13T17:10:16.477Z,19.61
2022-09-13T17:12:44.036Z,19.58
2022-09-13T17:15:12.012Z,19.55
2022-09-13T17:17:39.558Z,19.47
2022-09-13T17:20:11.930Z,19.44
2022-09-13T17:22:39.924Z,19.46
2022-09-13T17:25:08.788Z,19.50
2022-09-13T17:27:36.463Z,19.47
2022-09-13T17:30:06.641Z,19.43
2022-09-13T17:32:34.197Z,19.35
2022-09-13T17:35:01.731Z,19.35
2022-09-13T17:37:31.087Z,19.34
2022-09-13T17:39:58.752Z,19.36
2022-09-13T17:42:26.400Z,19.32
2022-09-13T17:44:53.956Z,19.35
2022-09-13T17:47:21.628Z,19.27
2022-09-13T17:49:49.149Z,19.23
2022-09-13T17:52:16.802Z,19.09
2022-09-13T17:54:46.420Z,19.26
2022-09-13T17:57:15.562Z,19.11
2022-09-13T17:59:43.104Z,19.08
2022-09-13T18:02:11.364Z,19.09
2022-09-13T18:04:38.963Z,19.07
2022-09-13T18:07:06.623Z,19.03
2022-09-13T18:09:34.663Z,18.95
2022-09-13T18:12:03.698Z,18.92
2022-09-13T18:14:32.663Z,19.04
2022-09-13T18:17:00.190Z,18.93
2022-09-13T18:19:44.747Z,18.88
2022-09-13T18:22:13.282Z,18.81
2022-09-13T18:24:40.861Z,18.82
2022-09-13T18:27:09.924Z,18.88
2022-09-13T18:29:37.569Z,18.83
2022-09-13T18:32:05.284Z,18.81
2022-09-13T18:34:32.833Z,18.79
2022-09-13T18:37:00.303Z,18.82
2022-09-13T18:39:27.900Z,18.84
2022-09-13T18:41:55.430Z,18.79
2022-09-13T18:44:24.320Z,18.77
2022-09-13T18:46:53.480Z,18.72
2022-09-13T18:49:20.970Z,18.72
2022-09-13T18:51:49.426Z,18.73
2022-09-13T18:54:18.615Z,18.73
2022-09-13T18:56:47.237Z,18.74
2022-09-13T18:59:15.432Z,18.69
2022-09-13T19:01:45.170Z,18.57
2022-09-13T19:04:14.602Z,18.57
2022-09-13T19:06:43.241Z,18.58
2022-09-13T19:09:11.539Z,18.57
2022-09-13T19:11:49.266Z,18.55
2022-09-13T19:14:18.107Z,18.54
2022-09-13T19:16:47.238Z,18.58
2022-09-13T19:19:14.883Z,18.59
2022-09-13T19:21:42.781Z,18.61
2022-09-13T19:24:17.784Z,18.61
2022-09-13T19:26:46.488Z,18.62
2022-09-13T19:29:15.150Z,18.56
2022-09-13T19:31:43.828Z,18.53
2022-09-13T19:34:14.653Z,18.52
2022-09-13T19:36:44.128Z,18.54
2022-09-13T19:39:11.897Z,18.58
2022-09-13T19:41:40.077Z,18.53
2022-09-13T19:44:08.372Z,18.57
2022-09-13T19:46:38.309Z,18.52
2022-09-13T19:49:06.699Z,18.47
2022-09-13T19:51:36.897Z,18.42
2022-09-13T19:54:05.681Z,18.39
2022-09-13T19:56:35.303Z,18.39
2022-09-13T19:59:03.321Z,18.45
2022-09-13T20:01:32.484Z,18.47
2022-09-13T20:04:01.719Z,18.49
2022-09-13T20:06:30.388Z,18.52
2022-09-13T20:09:00.877Z,18.48
2022-09-13T20:11:29.063Z,18.46
2022-09-13T20:13:59.040Z,18.44
2022-09-13T20:16:29.785Z,18.46
2022-09-13T20:18:58.106Z,18.60
2022-09-13T20:23:56.176Z,18.44
2022-09-13T20:26:26.752Z,18.45
2022-09-13T20:28:56.380Z,18.37
2022-09-13T20:31:26.728Z,18.48
2022-09-13T20:36:21.908Z,18.31
2022-09-13T20:38:49.928Z,18.53
2022-09-13T20:41:18.435Z,18.53
2022-09-13T20:43:48.855Z,18.55
2022-09-13T20:46:17.663Z,18.44
2022-09-13T20:48:45.606Z,18.48
2022-09-13T20:51:15.032Z,18.38
2022-09-13T20:53:42.789Z,18.14
2022-09-13T20:56:11.694Z,18.24
2022-09-13T20:58:39.569Z,18.13
2022-09-13T21:01:11.197Z,18.12
2022-09-13T21:03:41.298Z,18.11
2022-09-13T21:06:10.392Z,18.16
2022-09-13T21:08:43.104Z,18.17
2022-09-13T21:11:12.616Z,18.22
2022-09-13T21:13:42.035Z,18.30
2022-09-13T21:16:12.754Z,18.23
2022-09-13T21:18:41.150Z,18.31
2022-09-13T21:21:09.747Z,18.25
2022-09-13T21:23:40.232Z,18.18
2022-09-13T21:26:10.090Z,18.07
2022-09-13T21:28:38.781Z,18.11
2022-09-13T21:31:08.563Z,18.07
2022-09-13T21:33:37.521Z,18.12
2022-09-13T21:36:06.214Z,18.16
2022-09-13T21:38:36.253Z,18.05
2022-09-13T21:41:06.046Z,18.03
2022-09-13T21:43:34.072Z,17.94
2022-09-13T21:46:04.397Z,17.92
2022-09-13T21:48:32.754Z,17.92
2022-09-13T21:51:06.794Z,17.86
2022-09-13T21:53:36.482Z,17.84
2022-09-13T21:56:06.039Z,17.87
2022-09-13T21:58:33.777Z,17.84
2022-09-13T22:01:06.105Z,17.84
2022-09-13T22:03:36.427Z,17.90
2022-09-13T22:06:06.635Z,17.89
2022-09-13T22:08:36.566Z,17.91
2022-09-13T22:11:05.599Z,17.90
2022-09-13T22:13:34.664Z,17.93
2022-09-13T22:16:06.889Z,17.90
2022-09-13T22:18:35.040Z,17.85
2022-09-13T22:21:08.670Z,17.88
2022-09-13T22:23:36.527Z,18.02
2022-09-13T22:26:06.177Z,17.92
2022-09-13T22:28:33.787Z,17.78
2022-09-13T22:31:05.426Z,17.70
2022-09-13T22:33:33.387Z,17.71
2022-09-13T22:36:01.753Z,17.72
2022-09-13T22:38:31.356Z,17.73
2022-09-13T22:41:00.444Z,17.80
2022-09-13T22:43:28.289Z,17.71
2022-09-13T22:46:02.711Z,17.73
2022-09-13T22:48:30.526Z,17.67
2022-09-13T22:50:58.440Z,17.78
2022-09-13T22:53:26.692Z,17.83
2022-09-13T22:55:55.740Z,17.68
2022-09-13T22:58:23.267Z,17.76
2022-09-13T23:00:50.894Z,17.71
2022-09-13T23:03:18.599Z,17.71
2022-09-13T23:05:52.709Z,17.62
2022-09-13T23:08:20.323Z,17.59
2022-09-13T23:10:47.900Z,17.59
2022-09-13T23:13:16.845Z,17.65
2022-09-13T23:15:44.522Z,17.63
2022-09-13T23:18:12.102Z,17.60
2022-09-13T23:20:40.129Z,17.60
2022-09-13T23:23:08.475Z,17.57
2022-09-13T23:25:36.069Z,17.55
2022-09-13T23:28:03.799Z,17.74
2022-09-13T23:30:32.676Z,17.61
2022-09-13T23:33:00.367Z,17.57
2022-09-13T23:35:27.883Z,17.48
2022-09-13T23:37:55.433Z,17.51
2022-09-13T23:40:23.688Z,17.42
2022-09-13T23:42:51.292Z,17.38
2022-09-13T23:45:18.948Z,17.55
2022-09-13T23:47:47.919Z,17.41
2022-09-13T23:50:15.675Z,17.36
2022-09-13T23:52:43.322Z,17.29
2022-09-13T23:55:12.574Z,17.38
2022-09-13T23:57:40.133Z,17.41
